Time;durP1;ratioP1;P1;durP2;ratioP2;P2;SDS_P1;SDS_P2;PMS_P1;PMS_P2;Temp;Humidity;BMP_temperature;BMP_pressure;BME280_temperature;BME280_humidity;BME280_pressure;Samples;Min_cycle;Max_cycle;Signal;HPM_P1;HPM_P2
2022/11/14 00:02:15;;;;;;;;;;;;;;;7.47;100.00;98050.06;5118450;28;19970;-60
2022/11/14 00:04:45;;;;;;;;;;;;;;;7.48;100.00;98054.34;5121649;28;20632;-60
2022/11/14 00:07:11;;;;;;;;;;;;;;;7.46;100.00;98053.75;5122074;28;19993;-60
2022/11/14 00:09:39;;;;;;;;;;;;;;;7.47;100.00;98057.22;5118862;28;20011;-60
2022/11/14 00:12:05;;;;;;;;;;;;;;;7.45;100.00;98062.78;5118556;28;19924;-59
2022/11/14 00:14:33;;;;;;;;;;;;;;;7.43;100.00;98058.72;5120885;28;19983;-60
2022/11/14 00:16:59;;;;;;;;;;;;;;;7.39;100.00;98062.94;5122237;28;19924;-59
2022/11/14 00:19:26;;;;;;;;;;;;;;;7.27;100.00;98060.31;5120125;28;19990;-60
2022/11/14 00:21:52;;;;;;;;;;;;;;;7.29;100.00;98065.41;5118100;28;19984;-59
2022/11/14 00:24:18;;;;;;;;;;;;;;;7.24;100.00;98063.44;5120663;28;19979;-59
2022/11/14 00:26:45;;;;;;;;;;;;;;;7.29;100.00;98063.56;5121569;28;19985;-59
2022/11/14 00:29:11;;;;;;;;;;;;;;;7.34;100.00;98068.13;5121818;28;19998;-59
2022/11/14 00:31:39;;;;;;;;;;;;;;;7.34;100.00;98066.28;5118657;28;19995;-59
2022/11/14 00:34:05;;;;;;;;;;;;;;;7.25;100.00;98072.22;5118217;28;19924;-59
2022/11/14 00:36:32;;;;;;;;;;;;;;;7.24;100.00;98076.72;5120616;28;19924;-61
2022/11/14 00:38:58;;;;;;;;;;;;;;;7.24;100.00;98058.13;5121694;28;19959;-59
2022/11/14 00:41:25;;;;;;;;;;;;;;;7.24;100.00;98065.31;5120354;28;19975;-59
2022/11/14 00:43:51;;;;;;;;;;;;;;;7.23;100.00;98059.19;5118093;28;19925;-59
2022/11/14 00:46:17;;;;;;;;;;;;;;;7.24;100.00;98055.47;5118513;28;19995;-60
2022/11/14 00:48:45;;;;;;;;;;;;;;;7.24;100.00;98060.78;5103563;28;19981;-58
2022/11/14 00:51:11;;;;;;;;;;;;;;;7.04;100.00;98063.06;5121417;28;19930;-60
2022/11/14 00:53:37;;;;;;;;;;;;;;;7.10;100.00;98063.97;5120027;28;20098;-60
2022/11/14 00:56:04;;;;;;;;;;;;;;;7.09;100.00;98057.84;5099884;28;19995;-60
2022/11/14 00:58:31;;;;;;;;;;;;;;;7.14;100.00;98060.63;5120352;28;19924;-59
2022/11/14 01:00:57;;;;;;;;;;;;;;;7.16;100.00;98058.50;5121270;28;19984;-60
2022/11/14 01:03:23;;;;;;;;;;;;;;;7.21;100.00;98055.16;5119983;28;19927;-59
2022/11/14 01:05:51;;;;;;;;;;;;;;;7.23;100.00;98048.56;5117776;28;19967;-61
2022/11/14 01:08:18;;;;;;;;;;;;;;;7.23;100.00;98051.22;5118502;28;19924;-60
2022/11/14 01:10:45;;;;;;;;;;;;;;;7.23;100.00;98053.06;5121491;28;19979;-61
2022/11/14 01:13:12;;;;;;;;;;;;;;;7.17;100.00;98051.38;5121497;28;20022;-59
2022/11/14 01:15:39;;;;;;;;;;;;;;;7.00;100.00;98056.59;5118011;28;19967;-60
2022/11/14 01:18:05;;;;;;;;;;;;;;;6.85;100.00;98061.63;5121027;28;19988;-59
2022/11/14 01:20:31;;;;;;;;;;;;;;;6.88;100.00;98054.00;5124345;28;19996;-60
2022/11/14 01:22:59;;;;;;;;;;;;;;;6.98;100.00;98058.69;5126830;28;19973;-59
2022/11/14 01:25:25;;;;;;;;;;;;;;;7.02;100.00;98051.88;5123609;28;20201;-60
2022/11/14 01:27:52;;;;;;;;;;;;;;;7.09;100.00;98054.41;5121543;28;20532;-61
2022/11/14 01:30:18;;;;;;;;;;;;;;;7.12;100.00;98052.06;5122085;28;19971;-59
2022/11/14 01:32:44;;;;;;;;;;;;;;;7.02;100.00;98042.03;5125013;28;19986;-60
2022/11/14 01:35:11;;;;;;;;;;;;;;;6.98;100.00;98040.13;5124973;28;19957;-60
2022/11/14 01:37:37;;;;;;;;;;;;;;;6.98;100.00;98037.47;5121518;28;19924;-59
2022/11/14 01:40:05;;;;;;;;;;;;;;;7.01;100.00;98026.38;5121009;28;20221;-61
2022/11/14 01:42:32;;;;;;;;;;;;;;;7.04;100.00;98025.91;5123768;28;19920;-59
2022/11/14 01:44:58;;;;;;;;;;;;;;;7.07;100.00;98028.06;5124553;28;19950;-60
2022/11/14 01:47:27;;;;;;;;;;;;;;;7.10;100.00;98035.56;5123079;28;20025;-60
2022/11/14 01:49:54;;;;;;;;;;;;;;;7.10;100.00;98029.44;5121283;28;19991;-59
2022/11/14 01:52:22;;;;;;;;;;;;;;;7.10;100.00;98016.97;5123729;28;20023;-60
2022/11/14 01:54:49;;;;;;;;;;;;;;;7.09;100.00;98019.88;5124458;28;19934;-59
2022/11/14 01:57:18;;;;;;;;;;;;;;;7.09;100.00;98023.31;5124249;28;19931;-59
2022/11/14 01:59:47;;;;;;;;;;;;;;;7.04;100.00;98010.78;5121044;28;19924;-59
2022/11/14 02:02:16;;;;;;;;;;;;;;;7.07;100.00;98007.66;5120885;28;19960;-60
2022/11/14 02:04:44;;;;;;;;;;;;;;;7.07;100.00;97999.69;5120641;28;20031;-59
2022/11/14 02:07:11;;;;;;;;;;;;;;;7.11;100.00;98007.16;5120857;28;20031;-60
2022/11/14 02:09:39;;;;;;;;;;;;;;;7.10;100.00;98002.88;5123963;28;19970;-60
2022/11/14 02:12:06;;;;;;;;;;;;;;;7.09;100.00;97993.34;5124172;28;19974;-60
2022/11/14 02:14:36;;;;;;;;;;;;;;;7.08;100.00;97995.19;5121589;28;19930;-60
2022/11/14 02:17:02;;;;;;;;;;;;;;;7.09;100.00;98004.72;5120478;28;19924;-60
2022/11/14 02:19:40;;;;;;;;;;;;;;;7.09;100.00;98009.25;5122415;28;19999;-59
2022/11/14 02:22:07;;;;;;;;;;;;;;;7.09;100.00;98010.03;5123868;28;20015;-60
2022/11/14 02:24:34;;;;;;;;;;;;;;;7.03;100.00;98009.16;5123859;28;19935;-60
2022/11/14 02:27:00;;;;;;;;;;;;;;;7.00;100.00;98012.28;5123656;28;19983;-59
2022/11/14 02:29:26;;;;;;;;;;;;;;;7.00;100.00;98003.50;5122066;28;19962;-59
2022/11/14 02:31:53;;;;;;;;;;;;;;;7.03;100.00;98000.38;5120046;28;19988;-59
2022/11/14 02:34:19;;;;;;;;;;;;;;;7.00;100.00;98006.97;5120737;28;20010;-59
2022/11/14 02:36:46;;;;;;;;;;;;;;;7.00;100.00;97999.00;5123599;28;19988;-59
2022/11/14 02:39:13;;;;;;;;;;;;;;;6.94;100.00;97992.00;5123502;28;19934;-59
2022/11/14 02:41:40;;;;;;;;;;;;;;;6.98;100.00;97997.63;5120285;28;19990;-60
2022/11/14 02:44:06;;;;;;;;;;;;;;;6.99;100.00;97988.63;5119807;28;19934;-60
2022/11/14 02:46:32;;;;;;;;;;;;;;;6.98;100.00;97981.72;5122218;28;19991;-59
2022/11/14 02:48:59;;;;;;;;;;;;;;;6.98;100.00;97982.53;5123198;28;19987;-59
2022/11/14 02:51:25;;;;;;;;;;;;;;;6.99;100.00;97970.84;5121948;28;19974;-60
2022/11/14 02:53:51;;;;;;;;;;;;;;;6.96;100.00;97970.53;5121415;28;19959;-60
2022/11/14 02:56:19;;;;;;;;;;;;;;;6.94;100.00;97959.31;5120229;28;19938;-60
2022/11/14 02:58:45;;;;;;;;;;;;;;;6.95;100.00;97960.94;5123253;28;19958;-60
2022/11/14 03:01:12;;;;;;;;;;;;;;;6.94;100.00;97959.31;5123165;28;19923;-59
2022/11/14 03:03:38;;;;;;;;;;;;;;;6.94;100.00;97960.13;5101497;28;19968;-59
2022/11/14 03:06:05;;;;;;;;;;;;;;;6.92;100.00;97956.13;5119305;28;19938;-61
2022/11/14 03:08:32;;;;;;;;;;;;;;;6.92;100.00;97964.06;5122018;28;19930;-60
2022/11/14 03:11:03;;;;;;;;;;;;;;;6.91;100.00;97965.91;5123033;28;19924;-60
2022/11/14 03:13:31;;;;;;;;;;;;;;;6.86;100.00;97965.03;5120773;28;19967;-60
2022/11/14 03:15:57;;;;;;;;;;;;;;;6.77;100.00;97958.50;5119138;28;19924;-60
2022/11/14 03:18:23;;;;;;;;;;;;;;;6.76;100.00;97965.63;5120417;28;20031;-60
2022/11/14 03:20:50;;;;;;;;;;;;;;;6.80;100.00;97965.97;5122668;28;19975;-60
2022/11/14 03:23:16;;;;;;;;;;;;;;;6.79;100.00;97961.69;5122931;28;19963;-59
2022/11/14 03:25:42;;;;;;;;;;;;;;;6.79;100.00;97964.34;5122527;28;20342;-60
2022/11/14 03:28:08;;;;;;;;;;;;;;;6.81;100.00;97971.03;5122442;28;19978;-60
2022/11/14 03:30:36;;;;;;;;;;;;;;;6.78;100.00;97968.03;5119888;28;20000;-59
2022/11/14 03:33:02;;;;;;;;;;;;;;;6.80;100.00;97968.63;5119288;28;19988;-60
2022/11/14 03:35:29;;;;;;;;;;;;;;;6.79;100.00;97967.00;5121031;28;20467;-60
2022/11/14 03:37:55;;;;;;;;;;;;;;;6.78;100.00;97970.69;5122507;28;19932;-60
2022/11/14 03:40:21;;;;;;;;;;;;;;;6.79;100.00;97964.34;5120823;28;20056;-59
2022/11/14 03:42:48;;;;;;;;;;;;;;;6.78;100.00;97962.72;5118957;28;19963;-59
2022/11/14 03:45:14;;;;;;;;;;;;;;;6.76;100.00;97962.19;5118796;28;19924;-59
2022/11/14 03:47:42;;;;;;;;;;;;;;;6.76;100.00;97964.81;5119195;28;19994;-59
2022/11/14 03:50:08;;;;;;;;;;;;;;;6.75;100.00;97960.56;5122164;28;19931;-60
2022/11/14 03:52:35;;;;;;;;;;;;;;;6.75;100.00;97957.91;5122120;28;20026;-60
2022/11/14 03:55:01;;;;;;;;;;;;;;;6.75;100.00;97955.25;5122079;28;19984;-60
2022/11/14 03:57:27;;;;;;;;;;;;;;;6.70;100.00;97960.47;5120319;28;19919;-59
2022/11/14 03:59:53;;;;;;;;;;;;;;;6.68;100.00;97952.75;5118413;28;20353;-60
2022/11/14 04:02:20;;;;;;;;;;;;;;;6.70;100.00;97952.50;5119154;28;19938;-59
2022/11/14 04:04:47;;;;;;;;;;;;;;;6.72;100.00;97961.03;5122060;28;19988;-60
2022/11/14 04:07:14;;;;;;;;;;;;;;;6.68;100.00;97963.38;5121885;28;19979;-60
2022/11/14 04:09:40;;;;;;;;;;;;;;;6.64;100.00;97969.38;5109937;28;19980;-60
2022/11/14 04:12:06;;;;;;;;;;;;;;;6.62;100.00;97966.16;5109752;28;19924;-60
2022/11/14 04:14:33;;;;;;;;;;;;;;;6.49;100.00;97976.00;5109878;28;19983;-59
2022/11/14 04:16:59;;;;;;;;;;;;;;;6.37;100.00;97980.53;5109833;28;19983;-60
2022/11/14 04:19:25;;;;;;;;;;;;;;;6.39;100.00;97982.94;5109827;28;19995;-59
2022/11/14 04:21:53;;;;;;;;;;;;;;;6.40;100.00;97973.97;5109668;28;20007;-59
2022/11/14 04:24:19;;;;;;;;;;;;;;;6.43;100.00;97976.13;5120576;28;19983;-60
2022/11/14 04:26:45;;;;;;;;;;;;;;;6.44;100.00;97983.84;5121762;28;19986;-59
2022/11/14 04:29:12;;;;;;;;;;;;;;;6.41;100.00;97984.31;5121834;28;19967;-60
2022/11/14 04:31:38;;;;;;;;;;;;;;;6.28;100.00;97978.47;5118508;28;20418;-60
2022/11/14 04:34:04;;;;;;;;;;;;;;;5.65;100.00;97973.06;5118358;28;19924;-60
2022/11/14 04:36:31;;;;;;;;;;;;;;;5.82;100.00;97973.97;5120439;28;19924;-59
2022/11/14 04:38:58;;;;;;;;;;;;;;;5.95;100.00;97971.13;5121782;28;19970;-60
2022/11/14 04:41:25;;;;;;;;;;;;;;;6.09;100.00;97967.22;5102204;28;20011;-60
2022/11/14 04:43:51;;;;;;;;;;;;;;;6.19;100.00;97978.00;5118033;28;19924;-59
2022/11/14 04:46:17;;;;;;;;;;;;;;;6.26;100.00;97977.88;5118267;28;19988;-60
2022/11/14 04:48:44;;;;;;;;;;;;;;;6.29;100.00;97977.41;5121591;28;19932;-59
2022/11/14 04:51:10;;;;;;;;;;;;;;;6.32;100.00;97975.13;5121406;28;19955;-60
2022/11/14 04:53:37;;;;;;;;;;;;;;;6.29;100.00;97982.72;5124297;28;19971;-59
2022/11/14 04:56:05;;;;;;;;;;;;;;;6.29;100.00;97999.44;5121894;28;20525;-58
2022/11/14 04:58:31;;;;;;;;;;;;;;;6.32;100.00;97998.97;5124273;28;19995;-60
2022/11/14 05:00:57;;;;;;;;;;;;;;;6.37;100.00;98000.94;5125567;28;19950;-59
2022/11/14 05:03:24;;;;;;;;;;;;;;;6.21;100.00;97991.88;5124056;28;19940;-60
2022/11/14 05:05:50;;;;;;;;;;;;;;;6.27;100.00;97995.44;5121807;28;20023;-61
2022/11/14 05:08:16;;;;;;;;;;;;;;;6.31;100.00;98002.66;5122008;28;19983;-60
2022/11/14 05:10:44;;;;;;;;;;;;;;;6.32;100.00;97987.56;5125309;28;19983;-59
2022/11/14 05:13:11;;;;;;;;;;;;;;;6.34;100.00;97993.47;5125535;28;19924;-61
2022/11/14 05:15:37;;;;;;;;;;;;;;;6.38;100.00;97992.75;5122331;28;19983;-60
2022/11/14 05:18:04;;;;;;;;;;;;;;;6.39;100.00;97999.66;5121488;28;20005;-60
2022/11/14 05:20:30;;;;;;;;;;;;;;;6.41;100.00;97992.28;5123792;28;19928;-60
2022/11/14 05:22:57;;;;;;;;;;;;;;;6.41;100.00;97992.28;5126637;28;19956;-60
2022/11/14 05:25:24;;;;;;;;;;;;;;;6.33;100.00;97978.56;5123803;28;19923;-60
2022/11/14 05:27:50;;;;;;;;;;;;;;;6.26;100.00;97986.66;5121213;28;19955;-59
2022/11/14 05:30:17;;;;;;;;;;;;;;;6.30;100.00;98001.06;5121555;28;19992;-61
2022/11/14 05:32:44;;;;;;;;;;;;;;;6.35;100.00;97992.41;5124706;28;19923;-59
2022/11/14 05:35:10;;;;;;;;;;;;;;;6.33;100.00;97992.66;5124872;28;19924;-59
2022/11/14 05:37:37;;;;;;;;;;;;;;;6.36;100.00;97992.19;5121651;28;19980;-60
2022/11/14 05:40:04;;;;;;;;;;;;;;;6.38;100.00;97992.75;5121130;28;19924;-59
2022/11/14 05:42:30;;;;;;;;;;;;;;;6.24;100.00;97986.09;5123344;28;19988;-59
2022/11/14 05:44:57;;;;;;;;;;;;;;;6.13;100.00;97983.47;5124693;28;19992;-59
2022/11/14 05:47:24;;;;;;;;;;;;;;;6.08;100.00;97991.28;5123026;28;19923;-59
2022/11/14 05:49:51;;;;;;;;;;;;;;;6.15;100.00;97987.50;5121094;28;19959;-58
2022/11/14 05:52:17;;;;;;;;;;;;;;;6.18;100.00;97997.63;5123236;28;20008;-59
2022/11/14 05:54:43;;;;;;;;;;;;;;;6.25;100.00;97997.50;5124520;28;19923;-60
2022/11/14 05:57:10;;;;;;;;;;;;;;;6.24;100.00;98002.00;5124741;28;19999;-59
2022/11/14 05:59:36;;;;;;;;;;;;;;;6.24;100.00;97998.53;5121614;28;19928;-59
2022/11/14 06:02:02;;;;;;;;;;;;;;;6.28;100.00;97989.88;5120379;28;20077;-60
2022/11/14 06:04:30;;;;;;;;;;;;;;;6.30;100.00;97987.00;5122499;28;19924;-59
2022/11/14 06:06:56;;;;;;;;;;;;;;;6.29;100.00;97991.50;5124233;28;19983;-60
2022/11/14 06:09:23;;;;;;;;;;;;;;;6.24;100.00;97999.34;5123323;28;19983;-59
2022/11/14 06:11:49;;;;;;;;;;;;;;;6.24;100.00;97999.34;5120636;28;19992;-60
2022/11/14 06:14:15;;;;;;;;;;;;;;;6.27;100.00;98006.84;5120548;28;19924;-59
2022/11/14 06:16:42;;;;;;;;;;;;;;;6.21;100.00;98029.00;5123971;28;19923;-60
2022/11/14 06:19:08;;;;;;;;;;;;;;;6.18;100.00;98039.25;5123942;28;20115;-59
2022/11/14 06:21:35;;;;;;;;;;;;;;;6.09;100.00;98041.44;5121009;28;19991;-60
2022/11/14 06:24:02;;;;;;;;;;;;;;;6.12;100.00;98048.13;5122050;28;19952;-59
2022/11/14 06:26:30;;;;;;;;;;;;;;;6.17;100.00;98050.88;5122277;28;19977;-59
2022/11/14 06:28:56;;;;;;;;;;;;;;;6.20;100.00;98048.56;5123827;28;19927;-60
2022/11/14 06:31:23;;;;;;;;;;;;;;;6.21;100.00;98044.91;5122623;28;20034;-60
2022/11/14 06:33:50;;;;;;;;;;;;;;;6.15;100.00;98037.88;5120329;28;19959;-60
2022/11/14 06:36:16;;;;;;;;;;;;;;;5.85;100.00;98050.38;5120418;28;19931;-60
2022/11/14 06:38:44;;;;;;;;;;;;;;;5.84;100.00;98049.59;5123755;28;19928;-60
2022/11/14 06:41:11;;;;;;;;;;;;;;;5.91;100.00;98052.94;5123807;28;19959;-60
2022/11/14 06:43:39;;;;;;;;;;;;;;;6.04;100.00;98045.81;5120379;28;19995;-59
2022/11/14 06:46:06;;;;;;;;;;;;;;;6.11;100.00;98049.16;5120008;28;19983;-60
2022/11/14 06:48:33;;;;;;;;;;;;;;;6.13;100.00;98053.19;5122322;28;19955;-60
2022/11/14 06:51:00;;;;;;;;;;;;;;;6.10;100.00;98052.84;5105134;28;19924;-60
2022/11/14 06:53:27;;;;;;;;;;;;;;;6.15;100.00;98053.78;5123549;28;19928;-59
2022/11/14 06:55:56;;;;;;;;;;;;;;;6.19;100.00;98068.16;5119587;28;19959;-60
2022/11/14 06:58:22;;;;;;;;;;;;;;;6.21;100.00;98060.00;5120866;28;19924;-60
2022/11/14 07:00:49;;;;;;;;;;;;;;;6.21;100.00;98055.50;5123231;28;19967;-59
2022/11/14 07:03:15;;;;;;;;;;;;;;;6.18;100.00;98037.41;5123332;28;19991;-60
2022/11/14 07:05:41;;;;;;;;;;;;;;;6.19;100.00;98046.16;5111035;28;19974;-59
2022/11/14 07:08:08;;;;;;;;;;;;;;;6.22;100.00;98040.41;5110859;28;19935;-61
2022/11/14 07:10:34;;;;;;;;;;;;;;;6.27;100.00;98040.50;5111204;28;20007;-59
2022/11/14 07:13:02;;;;;;;;;;;;;;;6.26;100.00;98046.84;5110836;28;19956;-60
2022/11/14 07:15:28;;;;;;;;;;;;;;;6.30;100.00;98035.56;5109671;28;20396;-60
2022/11/14 07:17:54;;;;;;;;;;;;;;;6.34;100.00;98042.00;5110753;28;19934;-59
2022/11/14 07:20:21;;;;;;;;;;;;;;;6.28;100.00;98040.25;5110477;28;19981;-59
2022/11/14 07:22:47;;;;;;;;;;;;;;;6.29;100.00;98039.22;5116781;28;19999;-59
2022/11/14 07:25:13;;;;;;;;;;;;;;;6.30;100.00;98037.38;5122562;28;19951;-60
2022/11/14 07:27:40;;;;;;;;;;;;;;;6.32;100.00;98041.41;5119214;28;19963;-60
2022/11/14 07:30:08;;;;;;;;;;;;;;;6.30;100.00;98032.09;5119128;28;19939;-59
2022/11/14 07:32:34;;;;;;;;;;;;;;;6.22;100.00;98038.53;5121583;28;20000;-61
2022/11/14 07:35:01;;;;;;;;;;;;;;;6.32;100.00;98035.31;5122221;28;19946;-60
2022/11/14 07:37:27;;;;;;;;;;;;;;;6.32;100.00;98033.47;5120759;28;19928;-60
2022/11/14 07:39:53;;;;;;;;;;;;;;;6.28;100.00;98045.56;5118770;28;19986;-59
2022/11/14 07:42:20;;;;;;;;;;;;;;;6.28;100.00;98042.91;5119367;28;19951;-59
2022/11/14 07:44:46;;;;;;;;;;;;;;;6.29;100.00;98051.69;5122415;28;20431;-59
2022/11/14 07:47:13;;;;;;;;;;;;;;;6.15;100.00;98040.53;5122250;28;19985;-60
2022/11/14 07:49:40;;;;;;;;;;;;;;;6.15;100.00;98043.16;5118774;28;19965;-59
2022/11/14 07:52:06;;;;;;;;;;;;;;;6.14;100.00;98038.09;5119074;28;19995;-60
2022/11/14 07:54:32;;;;;;;;;;;;;;;6.19;100.00;98036.34;5122314;28;19959;-59
2022/11/14 07:56:59;;;;;;;;;;;;;;;6.20;100.00;98032.66;5122101;28;20014;-60
2022/11/14 07:59:25;;;;;;;;;;;;;;;6.16;100.00;98034.16;5120581;28;19984;-60
2022/11/14 08:01:51;;;;;;;;;;;;;;;6.11;100.00;98034.06;5118391;28;19988;-59
2022/11/14 08:04:19;;;;;;;;;;;;;;;6.11;100.00;98020.81;5118648;28;20231;-59
2022/11/14 08:06:45;;;;;;;;;;;;;;;6.12;100.00;98019.78;5121983;28;19930;-60
2022/11/14 08:09:11;;;;;;;;;;;;;;;6.15;100.00;98024.63;5121906;28;19923;-61
2022/11/14 08:11:50;;;;;;;;;;;;;;;6.20;100.00;98030.03;5118865;28;19985;-59
2022/11/14 08:14:17;;;;;;;;;;;;;;;6.21;100.00;98029.00;5118517;28;19924;-59
2022/11/14 08:16:43;;;;;;;;;;;;;;;6.18;100.00;98023.34;5121787;28;20006;-59
2022/11/14 08:19:09;;;;;;;;;;;;;;;6.24;100.00;98012.63;5121737;28;19974;-59
2022/11/14 08:21:37;;;;;;;;;;;;;;;6.39;100.00;98004.16;5118820;28;19987;-59
2022/11/14 08:24:03;;;;;;;;;;;;;;;6.46;100.00;98000.34;5120235;28;19924;-60
2022/11/14 08:26:30;;;;;;;;;;;;;;;6.53;100.00;97994.09;5119855;28;19924;-59
2022/11/14 08:28:56;;;;;;;;;;;;;;;6.58;100.00;98002.97;5121524;28;20328;-59
2022/11/14 08:31:22;;;;;;;;;;;;;;;6.61;100.00;98007.00;5120836;28;19919;-59
2022/11/14 08:33:51;;;;;;;;;;;;;;;6.66;100.00;98017.69;5118078;28;19959;-59
2022/11/14 08:36:17;;;;;;;;;;;;;;;6.59;100.00;98004.59;5118568;28;19934;-59
2022/11/14 08:38:44;;;;;;;;;;;;;;;6.66;100.00;98004.44;5121554;28;19937;-58
2022/11/14 08:41:11;;;;;;;;;;;;;;;6.77;100.00;98008.91;5121329;28;19983;-59
2022/11/14 08:43:37;;;;;;;;;;;;;;;6.79;100.00;98014.78;5118399;28;19978;-59
2022/11/14 08:46:04;;;;;;;;;;;;;;;6.93;100.00;98029.41;5117866;28;20074;-60
2022/11/14 08:48:31;;;;;;;;;;;;;;;7.04;100.00;98024.06;5120197;28;19967;-59
2022/11/14 08:50:58;;;;;;;;;;;;;;;7.13;100.00;98023.66;5121609;28;20018;-59
2022/11/14 08:53:24;;;;;;;;;;;;;;;7.23;100.00;98005.25;5122882;28;20431;-59
2022/11/14 08:55:52;;;;;;;;;;;;;;;7.36;100.00;98004.97;5118718;28;20006;-59
2022/11/14 08:58:18;;;;;;;;;;;;;;;7.43;100.00;98010.91;5118838;28;19951;-60
2022/11/14 09:00:44;;;;;;;;;;;;;;;7.56;100.00;98008.75;5121799;28;19964;-59
2022/11/14 09:03:12;;;;;;;;;;;;;;;7.61;100.00;98008.81;5121707;28;19923;-60
2022/11/14 09:05:39;;;;;;;;;;;;;;;7.66;100.00;98020.59;5117909;28;19920;-59
2022/11/14 09:08:06;;;;;;;;;;;;;;;7.70;100.00;98011.09;5117568;28;19924;-60
2022/11/14 09:10:32;;;;;;;;;;;;;;;7.74;100.00;98009.53;5119930;28;19924;-60
2022/11/14 09:13:01;;;;;;;;;;;;;;;7.79;100.00;98001.66;5121054;28;20005;-59
2022/11/14 09:15:27;;;;;;;;;;;;;;;7.89;100.00;98001.84;5119179;28;19924;-60
2022/11/14 09:17:54;;;;;;;;;;;;;;;7.93;100.00;98002.94;5117407;28;19934;-60
2022/11/14 09:20:21;;;;;;;;;;;;;;;7.93;100.00;98006.41;5118413;28;19924;-60
2022/11/14 09:22:49;;;;;;;;;;;;;;;8.03;100.00;98001.25;5122975;28;19966;-60
2022/11/14 09:25:15;;;;;;;;;;;;;;;8.05;100.00;98008.97;5120878;28;19924;-60
2022/11/14 09:27:41;;;;;;;;;;;;;;;8.33;100.00;98010.72;5109072;28;19924;-59
2022/11/14 09:30:10;;;;;;;;;;;;;;;8.35;100.00;98004.13;5109187;28;19942;-60
2022/11/14 09:32:37;;;;;;;;;;;;;;;8.52;100.00;98001.38;5108993;28;19995;-60
2022/11/14 09:35:03;;;;;;;;;;;;;;;8.63;100.00;98006.59;5108962;28;19979;-60
2022/11/14 09:37:29;;;;;;;;;;;;;;;8.68;100.00;98004.00;5109385;28;19963;-60
2022/11/14 09:39:56;;;;;;;;;;;;;;;8.83;100.00;97998.03;5112616;28;19963;-60
2022/11/14 09:42:30;;;;;;;;;;;;;;;8.82;100.00;97990.31;5112652;28;19987;-60
2022/11/14 09:44:57;;;;;;;;;;;;;;;8.95;100.00;97993.38;5112688;28;19988;-60
2022/11/14 09:47:27;;;;;;;;;;;;;;;9.00;100.00;97990.78;5112504;28;19920;-60
2022/11/14 09:49:56;;;;;;;;;;;;;;;9.00;100.00;97989.97;5112536;28;20003;-59
2022/11/14 09:52:27;;;;;;;;;;;;;;;9.18;100.00;97987.78;5115223;28;19927;-60
2022/11/14 09:54:56;;;;;;;;;;;;;;;9.34;100.00;97991.38;5124355;28;19920;-59
2022/11/14 09:57:22;;;;;;;;;;;;;;;9.36;100.00;97991.94;5123421;28;20066;-60
2022/11/14 09:59:49;;;;;;;;;;;;;;;9.41;100.00;97997.28;5120718;28;20011;-60
2022/11/14 10:02:24;;;;;;;;;;;;;;;9.48;100.00;97995.22;5120618;28;19966;-60
2022/11/14 10:04:58;;;;;;;;;;;;;;;9.50;100.00;98001.09;5120741;28;19996;-60
2022/11/14 10:07:33;;;;;;;;;;;;;;;9.69;100.00;97989.00;5121730;28;19924;-58
2022/11/14 10:10:03;;;;;;;;;;;;;;;9.48;100.00;97979.22;5124005;28;19923;-59
2022/11/14 10:12:37;;;;;;;;;;;;;;;9.69;100.00;97990.84;5122365;28;19927;-60
2022/11/14 10:15:10;;;;;;;;;;;;;;;9.88;100.00;97980.59;5120776;28;19928;-60
2022/11/14 10:17:45;;;;;;;;;;;;;;;9.82;100.00;97974.44;5123732;28;19928;-60
2022/11/14 10:20:15;;;;;;;;;;;;;;;10.02;100.00;97977.25;5124056;28;19969;-59
2022/11/14 10:22:48;;;;;;;;;;;;;;;10.18;100.00;97970.16;5117411;28;19970;-60
2022/11/14 10:25:21;;;;;;;;;;;;;;;10.08;100.00;97975.41;5124017;28;19979;-60
2022/11/14 10:27:54;;;;;;;;;;;;;;;10.17;100.00;97976.56;5111596;28;19955;-60
2022/11/14 10:30:20;;;;;;;;;;;;;;;10.29;100.00;97990.50;5111830;28;20388;-60
2022/11/14 10:32:56;;;;;;;;;;;;;;;10.39;100.00;97982.56;5111838;28;20019;-60
2022/11/14 10:35:29;;;;;;;;;;;;;;;10.52;100.00;97974.03;5111624;28;19991;-59
2022/11/14 10:37:58;;;;;;;;;;;;;;;10.56;100.00;97985.00;5111754;28;19992;-59
2022/11/14 10:40:25;;;;;;;;;;;;;;;10.76;100.00;97977.09;5111501;28;19924;-59
2022/11/14 10:42:55;;;;;;;;;;;;;;;10.79;100.00;97982.72;5111540;28;19999;-60
2022/11/14 10:45:24;;;;;;;;;;;;;;;10.96;100.00;97992.38;5111596;28;19949;-60
2022/11/14 10:47:52;;;;;;;;;;;;;;;11.00;100.00;97983.56;5111423;28;20043;-59
2022/11/14 10:50:21;;;;;;;;;;;;;;;11.13;100.00;97979.59;5111374;28;19928;-61
2022/11/14 10:52:52;;;;;;;;;;;;;;;11.12;100.00;97976.13;5111184;28;19983;-59
2022/11/14 10:55:20;;;;;;;;;;;;;;;11.06;100.00;97981.72;5119603;28;19994;-60
2022/11/14 10:57:46;;;;;;;;;;;;;;;11.24;100.00;97979.34;5119500;28;19935;-60
2022/11/14 11:00:14;;;;;;;;;;;;;;;11.07;100.00;97977.97;5119416;28;19980;-59
2022/11/14 11:02:47;;;;;;;;;;;;;;;11.04;100.00;97975.84;5122633;28;19967;-59
2022/11/14 11:05:15;;;;;;;;;;;;;;;11.17;100.00;97976.09;5122863;28;20015;-60
2022/11/14 11:13:29;;;;;;;;;;;;;;;11.18;100.00;97979.59;5110919;28;19924;-60
2022/11/14 11:15:57;;;;;;;;;;;;;;;11.36;100.00;97979.88;5119369;28;19964;-61
2022/11/14 11:18:25;;;;;;;;;;;;;;;11.45;100.00;97977.47;5120270;28;19925;-60
2022/11/14 11:21:01;;;;;;;;;;;;;;;11.44;100.00;97972.41;5122635;28;19928;-60
2022/11/14 11:23:28;;;;;;;;;;;;;;;11.50;100.00;97974.81;5122799;28;20255;-59
2022/11/14 11:26:04;;;;;;;;;;;;;;;11.42;100.00;97985.25;5119049;28;19991;-60
2022/11/14 11:28:31;;;;;;;;;;;;;;;11.20;100.00;97977.47;5121026;28;20497;-60
2022/11/14 11:30:59;;;;;;;;;;;;;;;11.39;100.00;97982.03;5122404;28;19991;-59
2022/11/14 11:33:26;;;;;;;;;;;;;;;11.50;100.00;97977.50;5121233;28;19979;-61
2022/11/14 11:35:55;;;;;;;;;;;;;;;11.66;100.00;97979.13;5119006;28;19955;-60
2022/11/14 11:38:24;;;;;;;;;;;;;;;11.48;100.00;97981.50;5119798;28;19938;-60
2022/11/14 11:40:52;;;;;;;;;;;;;;;11.63;100.00;97973.50;5122519;28;19955;-60
2022/11/14 11:43:26;;;;;;;;;;;;;;;11.71;100.00;97976.47;5122374;28;19991;-60
2022/11/14 11:45:54;;;;;;;;;;;;;;;11.76;100.00;97978.34;5118742;28;19991;-60
2022/11/14 11:48:21;;;;;;;;;;;;;;;11.84;100.00;97964.41;5119220;28;19978;-60
2022/11/14 11:50:49;;;;;;;;;;;;;;;11.74;100.00;97972.44;5121303;28;21478;-59
2022/11/14 11:53:18;;;;;;;;;;;;;;;11.72;100.00;97969.25;5113718;28;19974;-60
2022/11/14 11:55:46;;;;;;;;;;;;;;;11.76;100.00;97965.75;5110213;28;19968;-61
2022/11/14 11:58:16;;;;;;;;;;;;;;;11.70;100.00;97961.47;5110286;28;19995;-60
2022/11/14 12:00:44;;;;;;;;;;;;;;;11.71;100.00;97968.44;5113299;28;19979;-60
2022/11/14 12:03:12;;;;;;;;;;;;;;;11.75;100.00;97958.81;5122053;28;19971;-60
2022/11/14 12:05:45;;;;;;;;;;;;;;;11.76;100.00;97964.97;5118814;28;19924;-59
2022/11/14 12:08:18;;;;;;;;;;;;;;;11.72;100.00;97964.69;5118425;28;19924;-60
2022/11/14 12:10:45;;;;;;;;;;;;;;;11.75;100.00;97964.16;5118584;28;20000;-60
2022/11/14 12:13:20;;;;;;;;;;;;;;;11.77;100.00;97969.22;5118234;28;19932;-60
2022/11/14 12:15:52;;;;;;;;;;;;;;;11.50;100.00;97985.53;5118177;28;19991;-60
2022/11/14 12:18:27;;;;;;;;;;;;;;;11.48;100.00;97968.91;5118575;28;19996;-60
2022/11/14 12:21:05;;;;;;;;;;;;;;;11.14;100.00;97957.94;5121721;28;20648;-59
2022/11/14 12:23:45;;;;;;;;;;;;;;;11.38;100.00;97971.63;5112720;28;20034;-60
2022/11/14 12:26:29;;;;;;;;;;;;;;;11.44;100.00;97978.56;5118191;28;19928;-60
2022/11/14 12:29:05;;;;;;;;;;;;;;;11.58;100.00;97976.97;5108868;28;19928;-60
2022/11/14 12:31:34;;;;;;;;;;;;;;;11.43;100.00;97974.28;5109553;28;19988;-60
2022/11/14 12:34:03;;;;;;;;;;;;;;;11.77;100.00;97983.41;5109719;28;19959;-60
2022/11/14 12:36:30;;;;;;;;;;;;;;;11.79;100.00;97986.59;5109409;28;19979;-60
2022/11/14 12:38:58;;;;;;;;;;;;;;;11.42;100.00;97990.59;5109508;28;19952;-61
2022/11/14 12:41:26;;;;;;;;;;;;;;;11.13;100.00;97992.97;5109539;28;19991;-59
2022/11/14 12:43:52;;;;;;;;;;;;;;;11.48;100.00;97994.88;5109321;28;19983;-60
2022/11/14 12:46:18;;;;;;;;;;;;;;;10.38;100.00;97990.81;5109430;28;19982;-61
2022/11/14 12:48:46;;;;;;;;;;;;;;;11.06;100.00;97992.41;5109427;28;19987;-60
2022/11/14 12:51:31;;;;;;;;;;;;;;;11.23;100.00;97982.28;5109305;28;19995;-59
2022/11/14 12:53:57;;;;;;;;;;;;;;;10.86;100.00;97987.00;5111082;28;19999;-59